Time;durP1;ratioP1;P1;durP2;ratioP2;P2;SDS_P1;SDS_P2;PMS_P1;PMS_P2;Temp;Humidity;BMP_temperature;BMP_pressure;BME280_temperature;BME280_humidity;BME280_pressure;Samples;Min_cycle;Max_cycle;Signal;HPM_P1;HPM_P2
2023/03/30 00:00:57;;;;;;;;;;;10.50;99.90;;;;;;5009534;28;19914;-63
2023/03/30 00:03:22;;;;;;;;;;;10.50;99.90;;;;;;5011504;28;19913;-63
2023/03/30 00:05:50;;;;;;;;;;;10.50;99.90;;;;;;5010640;28;19948;-63
2023/03/30 00:08:17;;;;;;;;;;;10.50;99.90;;;;;;5005513;28;19914;-63
2023/03/30 00:10:43;;;;;;;;;;;10.60;99.90;;;;;;5006995;28;19980;-63
2023/03/30 00:13:09;;;;;;;;;;;10.50;99.90;;;;;;5010365;28;19913;-62
2023/03/30 00:15:34;;;;;;;;;;;10.50;99.90;;;;;;5005005;28;20412;-64
2023/03/30 00:18:00;;;;;;;;;;;10.40;99.90;;;;;;5006786;28;19913;-61
2023/03/30 00:20:25;;;;;;;;;;;10.30;99.90;;;;;;4999577;28;20440;-63
2023/03/30 00:22:51;;;;;;;;;;;10.30;99.90;;;;;;5006394;28;19913;-62
2023/03/30 00:25:17;;;;;;;;;;;10.10;99.90;;;;;;5008440;28;19975;-63
2023/03/30 00:27:42;;;;;;;;;;;10.10;99.90;;;;;;5010620;28;19918;-63
2023/03/30 00:30:16;;;;;;;;;;;9.90;99.90;;;;;;5009561;28;19916;-63
2023/03/30 00:32:43;;;;;;;;;;;9.90;99.90;;;;;;5007479;28;20302;-64
2023/03/30 00:35:09;;;;;;;;;;;9.90;99.90;;;;;;5006854;28;19920;-63
2023/03/30 00:37:36;;;;;;;;;;;9.90;99.90;;;;;;5008603;28;19917;-63
2023/03/30 00:40:03;;;;;;;;;;;9.80;99.90;;;;;;5007504;28;19922;-62
2023/03/30 00:42:28;;;;;;;;;;;9.90;99.90;;;;;;5008012;28;20004;-64
2023/03/30 00:45:09;;;;;;;;;;;9.90;99.90;;;;;;5010155;28;19993;-63
2023/03/30 00:47:37;;;;;;;;;;;9.90;99.90;;;;;;5010201;28;19918;-64
2023/03/30 00:50:04;;;;;;;;;;;10.00;99.90;;;;;;5007557;28;19910;-63
2023/03/30 00:52:32;;;;;;;;;;;10.10;99.90;;;;;;5006022;28;19914;-63
2023/03/30 00:54:58;;;;;;;;;;;10.20;99.90;;;;;;5008779;28;19910;-64
2023/03/30 00:57:24;;;;;;;;;;;10.40;99.90;;;;;;5006010;28;19921;-63
2023/03/30 00:59:51;;;;;;;;;;;10.60;99.90;;;;;;5004459;28;19921;-62
2023/03/30 01:02:17;;;;;;;;;;;10.70;99.90;;;;;;5008748;28;19910;-62
2023/03/30 01:04:44;;;;;;;;;;;10.80;99.90;;;;;;5005945;28;19918;-63
2023/03/30 01:07:12;;;;;;;;;;;10.80;99.90;;;;;;5008399;28;20036;-63
2023/03/30 01:09:39;;;;;;;;;;;10.80;99.90;;;;;;5007777;28;19968;-63
2023/03/30 01:12:04;;;;;;;;;;;10.80;99.90;;;;;;5006145;28;19922;-62
2023/03/30 01:14:31;;;;;;;;;;;10.70;99.90;;;;;;5006295;28;19929;-64
2023/03/30 01:17:12;;;;;;;;;;;10.80;99.90;;;;;;5002279;28;19965;-62
2023/03/30 01:19:53;;;;;;;;;;;10.70;99.90;;;;;;5006513;28;20276;-63
2023/03/30 01:22:37;;;;;;;;;;;10.70;99.90;;;;;;5005148;28;20007;-63
2023/03/30 01:25:03;;;;;;;;;;;10.80;99.90;;;;;;5008860;28;19921;-62
2023/03/30 01:27:56;;;;;;;;;;;11.00;99.90;;;;;;5009215;28;19913;-63
2023/03/30 01:30:30;;;;;;;;;;;11.20;99.90;;;;;;5006386;28;19964;-63
2023/03/30 01:32:59;;;;;;;;;;;11.30;99.90;;;;;;5006665;28;19909;-64
2023/03/30 01:35:37;;;;;;;;;;;11.40;99.90;;;;;;5004889;28;20375;-63
2023/03/30 01:38:21;;;;;;;;;;;11.60;99.90;;;;;;5005070;28;19920;-62
2023/03/30 01:40:54;;;;;;;;;;;11.70;99.90;;;;;;4998605;28;19914;-63
2023/03/30 01:43:29;;;;;;;;;;;12.20;99.90;;;;;;5007214;28;19972;-62
2023/03/30 01:46:00;;;;;;;;;;;12.70;99.90;;;;;;5007659;28;19922;-63
2023/03/30 01:48:37;;;;;;;;;;;12.80;99.90;;;;;;5004929;28;19925;-63
2023/03/30 01:51:05;;;;;;;;;;;12.90;99.90;;;;;;5007098;28;19923;-64
2023/03/30 01:53:36;;;;;;;;;;;13.20;99.90;;;;;;5009818;28;19913;-63
2023/03/30 01:56:21;;;;;;;;;;;13.50;99.90;;;;;;5003140;28;20362;-62
2023/03/30 01:58:55;;;;;;;;;;;13.50;99.90;;;;;;5009137;28;20397;-64
2023/03/30 02:01:22;;;;;;;;;;;13.60;99.90;;;;;;5005316;28;20499;-62
2023/03/30 02:03:51;;;;;;;;;;;13.80;99.90;;;;;;5004905;28;19940;-64
2023/03/30 02:06:19;;;;;;;;;;;14.00;99.90;;;;;;5007221;28;19921;-64
2023/03/30 02:08:48;;;;;;;;;;;14.40;99.90;;;;;;5007127;28;19996;-64
2023/03/30 02:11:13;;;;;;;;;;;14.70;99.90;;;;;;5003051;28;19920;-64
2023/03/30 02:13:40;;;;;;;;;;;14.90;99.90;;;;;;5006627;28;19997;-64
2023/03/30 02:16:08;;;;;;;;;;;15.30;99.90;;;;;;5008139;28;20264;-63
2023/03/30 02:18:34;;;;;;;;;;;15.40;99.90;;;;;;5006670;28;19918;-64
2023/03/30 02:21:00;;;;;;;;;;;15.40;99.90;;;;;;5012384;28;20019;-63
2023/03/30 02:23:30;;;;;;;;;;;15.50;99.90;;;;;;5016931;28;19920;-64
2023/03/30 02:25:56;;;;;;;;;;;15.40;99.90;;;;;;5009946;28;20300;-64
2023/03/30 02:28:22;;;;;;;;;;;15.60;99.90;;;;;;5014631;28;19991;-64
2023/03/30 02:30:48;;;;;;;;;;;15.60;99.90;;;;;;5012513;28;20390;-63
2023/03/30 02:33:21;;;;;;;;;;;15.60;99.90;;;;;;5014580;28;19913;-63
2023/03/30 02:35:52;;;;;;;;;;;15.70;99.90;;;;;;5013948;28;19913;-63
2023/03/30 02:38:31;;;;;;;;;;;15.60;99.90;;;;;;5016127;28;19913;-63
2023/03/30 02:41:15;;;;;;;;;;;15.60;99.90;;;;;;5010361;28;19920;-64
2023/03/30 02:43:59;;;;;;;;;;;15.60;99.90;;;;;;5013837;28;19955;-62
2023/03/30 02:46:24;;;;;;;;;;;15.60;99.90;;;;;;5010849;28;19975;-63
2023/03/30 02:48:55;;;;;;;;;;;15.60;99.90;;;;;;5015375;28;20391;-64
2023/03/30 02:51:39;;;;;;;;;;;15.40;99.90;;;;;;5014364;28;19921;-63
2023/03/30 02:54:15;;;;;;;;;;;15.30;99.90;;;;;;5014396;28;19940;-63
2023/03/30 02:57:00;;;;;;;;;;;15.30;99.90;;;;;;5005891;28;20393;-65
2023/03/30 02:59:29;;;;;;;;;;;15.20;99.90;;;;;;5012257;28;19913;-64
2023/03/30 03:02:03;;;;;;;;;;;15.20;99.90;;;;;;5013410;28;19917;-64
2023/03/30 03:04:32;;;;;;;;;;;15.10;99.90;;;;;;5012064;28;19971;-63
2023/03/30 03:07:01;;;;;;;;;;;15.00;99.90;;;;;;5012840;28;19968;-64
2023/03/30 03:09:27;;;;;;;;;;;14.90;99.90;;;;;;5012775;28;19917;-64
2023/03/30 03:11:53;;;;;;;;;;;14.70;99.90;;;;;;5015424;28;19913;-64
2023/03/30 03:14:19;;;;;;;;;;;14.50;99.90;;;;;;5013008;28;19920;-64
2023/03/30 03:16:45;;;;;;;;;;;14.60;99.90;;;;;;5011670;28;19917;-64
2023/03/30 03:19:10;;;;;;;;;;;14.60;99.90;;;;;;5010431;28;19972;-64
2023/03/30 03:21:36;;;;;;;;;;;14.60;99.90;;;;;;5007089;28;19925;-64
2023/03/30 03:24:02;;;;;;;;;;;14.60;99.90;;;;;;5012796;28;19913;-64
2023/03/30 03:26:28;;;;;;;;;;;14.50;99.90;;;;;;5013675;28;20283;-63
2023/03/30 03:28:54;;;;;;;;;;;14.60;99.90;;;;;;5009380;28;19968;-63
2023/03/30 03:31:19;;;;;;;;;;;14.40;99.90;;;;;;5011984;28;19921;-64
2023/03/30 03:33:45;;;;;;;;;;;14.50;99.90;;;;;;5004898;28;19914;-64
2023/03/30 03:36:10;;;;;;;;;;;14.40;99.90;;;;;;5007072;28;19944;-63
2023/03/30 03:38:36;;;;;;;;;;;14.50;99.90;;;;;;5007695;28;19913;-64
2023/03/30 03:41:02;;;;;;;;;;;14.30;99.90;;;;;;5008661;28;19913;-64
2023/03/30 03:43:27;;;;;;;;;;;14.20;99.90;;;;;;5008557;28;20031;-62
2023/03/30 03:45:53;;;;;;;;;;;14.10;99.90;;;;;;5009126;28;19914;-64
2023/03/30 03:48:19;;;;;;;;;;;14.00;99.90;;;;;;5010582;28;19929;-64
2023/03/30 03:50:48;;;;;;;;;;;13.90;99.90;;;;;;5006008;28;19914;-63
2023/03/30 03:53:13;;;;;;;;;;;13.70;99.90;;;;;;5008798;28;19921;-63
2023/03/30 03:55:40;;;;;;;;;;;13.70;99.90;;;;;;5004752;28;20327;-64
2023/03/30 03:58:06;;;;;;;;;;;13.60;99.90;;;;;;5006489;28;19921;-64
2023/03/30 04:00:32;;;;;;;;;;;13.50;99.90;;;;;;5003855;28;19999;-62
2023/03/30 04:02:58;;;;;;;;;;;13.30;99.90;;;;;;5005353;28;20395;-63
2023/03/30 04:05:24;;;;;;;;;;;13.20;99.90;;;;;;5011201;28;20002;-64
2023/03/30 04:07:52;;;;;;;;;;;13.00;99.90;;;;;;5007257;28;19929;-63
2023/03/30 04:10:17;;;;;;;;;;;13.10;99.90;;;;;;5007455;28;19967;-63
2023/03/30 04:12:43;;;;;;;;;;;13.00;99.90;;;;;;5008953;28;20040;-63
2023/03/30 04:15:08;;;;;;;;;;;12.90;99.90;;;;;;5007309;28;20389;-63
2023/03/30 04:17:35;;;;;;;;;;;12.90;99.90;;;;;;5007924;28;20402;-64
2023/03/30 04:20:03;;;;;;;;;;;12.80;99.90;;;;;;5008371;28;19913;-62
2023/03/30 04:22:31;;;;;;;;;;;12.80;99.90;;;;;;5010911;28;19932;-63
2023/03/30 04:24:58;;;;;;;;;;;12.80;99.90;;;;;;5009137;28;19916;-64
2023/03/30 04:27:24;;;;;;;;;;;12.80;99.90;;;;;;5010605;28;20007;-64
2023/03/30 04:29:50;;;;;;;;;;;12.70;99.90;;;;;;5009458;28;19963;-63
2023/03/30 04:32:19;;;;;;;;;;;12.60;99.90;;;;;;5008553;28;19948;-64
2023/03/30 04:34:48;;;;;;;;;;;12.60;99.90;;;;;;5009975;28;19922;-63
2023/03/30 04:37:17;;;;;;;;;;;12.70;99.90;;;;;;5009722;28;19917;-63
2023/03/30 04:39:45;;;;;;;;;;;13.00;99.90;;;;;;5010512;28;19918;-62
2023/03/30 04:42:18;;;;;;;;;;;13.10;99.90;;;;;;5009823;28;19932;-63
2023/03/30 04:44:44;;;;;;;;;;;13.40;99.90;;;;;;5007713;28;19913;-63
2023/03/30 04:47:10;;;;;;;;;;;13.70;99.90;;;;;;5011249;28;19928;-63
2023/03/30 04:49:35;;;;;;;;;;;13.80;99.90;;;;;;5009290;28;19914;-62
2023/03/30 04:52:01;;;;;;;;;;;13.90;99.90;;;;;;5008641;28;20387;-63
2023/03/30 04:54:26;;;;;;;;;;;14.10;99.90;;;;;;5006102;28;21799;-62
2023/03/30 04:56:51;;;;;;;;;;;14.10;99.90;;;;;;5005444;28;19941;-62
2023/03/30 04:59:17;;;;;;;;;;;14.30;99.90;;;;;;5010045;28;19949;-62
2023/03/30 05:01:44;;;;;;;;;;;14.40;99.90;;;;;;5013407;28;19913;-61
2023/03/30 05:04:09;;;;;;;;;;;14.50;99.90;;;;;;5010350;28;19914;-61
2023/03/30 05:06:35;;;;;;;;;;;14.40;99.90;;;;;;4997224;28;19924;-61
2023/03/30 05:09:00;;;;;;;;;;;14.50;99.90;;;;;;5003479;28;20012;-59
2023/03/30 05:11:25;;;;;;;;;;;14.50;99.90;;;;;;5002317;28;19936;-61
2023/03/30 05:13:52;;;;;;;;;;;14.50;99.90;;;;;;5009666;28;19975;-61
2023/03/30 05:16:18;;;;;;;;;;;14.60;99.90;;;;;;5003314;28;20030;-59
2023/03/30 05:18:44;;;;;;;;;;;14.50;99.90;;;;;;5006635;28;19956;-60
2023/03/30 05:21:09;;;;;;;;;;;14.50;99.90;;;;;;5006603;28;19921;-62
2023/03/30 05:23:35;;;;;;;;;;;14.50;99.90;;;;;;5009179;28;19917;-63
2023/03/30 05:26:02;;;;;;;;;;;14.60;99.90;;;;;;5004060;28;19975;-61
2023/03/30 05:28:28;;;;;;;;;;;14.70;99.90;;;;;;5007617;28;19955;-61
2023/03/30 05:30:53;;;;;;;;;;;14.90;99.90;;;;;;5006832;28;20387;-59
2023/03/30 05:33:20;;;;;;;;;;;14.80;99.90;;;;;;5005738;28;19918;-60
2023/03/30 05:35:46;;;;;;;;;;;14.80;99.90;;;;;;5001702;28;19966;-61
2023/03/30 05:38:11;;;;;;;;;;;15.00;99.90;;;;;;4999313;28;20634;-61
2023/03/30 05:40:37;;;;;;;;;;;15.00;99.90;;;;;;5005521;28;19917;-61
2023/03/30 05:43:02;;;;;;;;;;;15.10;99.90;;;;;;5009117;28;19935;-62
2023/03/30 05:45:28;;;;;;;;;;;15.20;99.90;;;;;;5009364;28;20015;-62
2023/03/30 05:47:54;;;;;;;;;;;15.20;99.90;;;;;;5010278;28;20026;-62
2023/03/30 05:50:20;;;;;;;;;;;15.20;99.90;;;;;;5007684;28;20384;-60
2023/03/30 05:52:46;;;;;;;;;;;15.10;99.90;;;;;;5004126;28;19920;-60
2023/03/30 05:55:12;;;;;;;;;;;15.10;99.90;;;;;;5004861;28;19913;-62
2023/03/30 05:57:37;;;;;;;;;;;15.20;99.90;;;;;;5010268;28;20343;-60
2023/03/30 06:00:05;;;;;;;;;;;15.20;99.90;;;;;;5009369;28;19916;-62
2023/03/30 06:02:31;;;;;;;;;;;15.20;99.90;;;;;;5008240;28;20549;-62
2023/03/30 06:04:56;;;;;;;;;;;15.20;99.90;;;;;;5010053;28;19953;-61
2023/03/30 06:07:23;;;;;;;;;;;15.10;99.90;;;;;;5009984;28;20290;-60
2023/03/30 06:09:48;;;;;;;;;;;15.10;99.90;;;;;;5010056;28;20386;-61
2023/03/30 06:12:14;;;;;;;;;;;15.10;99.90;;;;;;5009473;28;19910;-62
2023/03/30 06:14:39;;;;;;;;;;;15.10;99.90;;;;;;5009793;28;20370;-62
2023/03/30 06:17:06;;;;;;;;;;;15.10;99.90;;;;;;5010406;28;19917;-60
2023/03/30 06:19:31;;;;;;;;;;;15.10;99.90;;;;;;5009218;28;19920;-61
2023/03/30 06:21:57;;;;;;;;;;;15.10;99.90;;;;;;5009971;28;20019;-61
2023/03/30 06:24:23;;;;;;;;;;;15.10;99.90;;;;;;5010984;28;19910;-61
2023/03/30 06:26:48;;;;;;;;;;;15.10;99.90;;;;;;5010476;28;19909;-59
2023/03/30 06:29:14;;;;;;;;;;;15.10;99.90;;;;;;5004479;28;19959;-61
2023/03/30 06:31:39;;;;;;;;;;;15.00;99.90;;;;;;5004519;28;19921;-61
2023/03/30 06:34:05;;;;;;;;;;;15.00;99.90;;;;;;5010088;28;19913;-60
2023/03/30 06:36:30;;;;;;;;;;;15.00;99.90;;;;;;5010556;28;20395;-60
2023/03/30 06:38:56;;;;;;;;;;;15.00;99.90;;;;;;5007412;28;20010;-61
2023/03/30 06:41:21;;;;;;;;;;;15.00;99.90;;;;;;5009574;28;20008;-60
2023/03/30 06:43:47;;;;;;;;;;;14.90;99.90;;;;;;5009535;28;19910;-62
2023/03/30 06:46:13;;;;;;;;;;;14.90;99.90;;;;;;5009684;28;20375;-62
2023/03/30 06:48:39;;;;;;;;;;;14.90;99.90;;;;;;5008154;28;19913;-62
2023/03/30 06:51:05;;;;;;;;;;;15.00;99.90;;;;;;5002915;28;19913;-62
2023/03/30 06:53:31;;;;;;;;;;;15.00;99.90;;;;;;5005024;28;20057;-61
2023/03/30 06:55:57;;;;;;;;;;;15.00;99.90;;;;;;5005243;28;19996;-60
2023/03/30 06:58:23;;;;;;;;;;;15.00;99.90;;;;;;5008025;28;19913;-61
2023/03/30 07:00:49;;;;;;;;;;;15.10;99.90;;;;;;5006282;28;19917;-61
2023/03/30 07:03:17;;;;;;;;;;;15.10;99.90;;;;;;5007436;28;19913;-61
2023/03/30 07:05:45;;;;;;;;;;;15.00;99.90;;;;;;5006575;28;19914;-63
2023/03/30 07:08:11;;;;;;;;;;;15.00;99.90;;;;;;5010831;28;19918;-59
2023/03/30 07:10:36;;;;;;;;;;;15.10;99.90;;;;;;5010435;28;20431;-61
2023/03/30 07:13:02;;;;;;;;;;;15.10;99.90;;;;;;5013363;28;19917;-60
2023/03/30 07:15:27;;;;;;;;;;;15.20;99.90;;;;;;5013192;28;19913;-63
2023/03/30 07:17:53;;;;;;;;;;;15.30;99.90;;;;;;5012807;28;19910;-61
2023/03/30 07:20:19;;;;;;;;;;;15.30;99.90;;;;;;5012165;28;19975;-62
2023/03/30 07:22:44;;;;;;;;;;;15.40;99.90;;;;;;5008434;28;19914;-61
2023/03/30 07:25:12;;;;;;;;;;;15.50;99.90;;;;;;5006917;28;21839;-62
2023/03/30 07:27:37;;;;;;;;;;;15.60;99.90;;;;;;5012725;28;19984;-62
2023/03/30 07:30:04;;;;;;;;;;;15.70;99.90;;;;;;5012330;28;19910;-62
2023/03/30 07:32:29;;;;;;;;;;;15.80;99.90;;;;;;5012525;28;19920;-63
2023/03/30 07:34:55;;;;;;;;;;;15.80;99.90;;;;;;5009769;28;20008;-61
2023/03/30 07:37:20;;;;;;;;;;;15.80;99.90;;;;;;5002421;28;19924;-62
2023/03/30 07:39:45;;;;;;;;;;;15.90;99.90;;;;;;5011318;28;19913;-63
2023/03/30 07:42:11;;;;;;;;;;;15.90;99.90;;;;;;5010463;28;19918;-62
2023/03/30 07:44:36;;;;;;;;;;;15.90;99.90;;;;;;5012315;28;20418;-63
2023/03/30 07:47:03;;;;;;;;;;;15.90;99.90;;;;;;5011287;28;20441;-63
2023/03/30 07:49:28;;;;;;;;;;;15.90;99.90;;;;;;5003724;28;20024;-62
2023/03/30 07:51:54;;;;;;;;;;;15.90;99.90;;;;;;5002417;28;20316;-63
2023/03/30 07:54:19;;;;;;;;;;;15.90;99.90;;;;;;5008036;28;19968;-63
2023/03/30 07:56:51;;;;;;;;;;;15.90;99.90;;;;;;5011786;28;19918;-64
2023/03/30 07:59:20;;;;;;;;;;;15.90;99.90;;;;;;5009980;28;20330;-63
2023/03/30 08:01:49;;;;;;;;;;;15.90;99.90;;;;;;5010889;28;19997;-63
2023/03/30 08:04:15;;;;;;;;;;;15.80;99.90;;;;;;5008298;28;19925;-64
2023/03/30 08:06:40;;;;;;;;;;;15.80;99.90;;;;;;5006394;28;19935;-62
2023/03/30 08:09:06;;;;;;;;;;;15.80;99.90;;;;;;5010232;28;20422;-63
2023/03/30 08:11:33;;;;;;;;;;;15.80;99.90;;;;;;5007667;28;19917;-63
2023/03/30 08:13:58;;;;;;;;;;;15.80;99.90;;;;;;5011724;28;19910;-63
2023/03/30 08:16:24;;;;;;;;;;;15.80;99.90;;;;;;5006541;28;19918;-64
2023/03/30 08:18:53;;;;;;;;;;;15.80;99.90;;;;;;5011245;28;19924;-63
2023/03/30 08:21:20;;;;;;;;;;;15.80;99.90;;;;;;5011254;28;20390;-63
2023/03/30 08:23:45;;;;;;;;;;;15.80;99.90;;;;;;5011701;28;19909;-63
2023/03/30 08:26:11;;;;;;;;;;;15.80;99.90;;;;;;5012065;28;20402;-63
2023/03/30 08:28:36;;;;;;;;;;;15.80;99.90;;;;;;5009839;28;19909;-64
2023/03/30 08:31:05;;;;;;;;;;;15.70;99.90;;;;;;5011235;28;20000;-62
2023/03/30 08:33:31;;;;;;;;;;;15.80;99.90;;;;;;5009439;28;19909;-62
2023/03/30 08:35:56;;;;;;;;;;;15.80;99.90;;;;;;5011180;28;19917;-61
2023/03/30 08:38:22;;;;;;;;;;;16.00;99.90;;;;;;5011714;28;20422;-63
2023/03/30 08:40:48;;;;;;;;;;;16.00;99.90;;;;;;5010145;28;20268;-62
2023/03/30 08:43:19;;;;;;;;;;;15.90;99.90;;;;;;5011086;28;20375;-63
2023/03/30 08:45:45;;;;;;;;;;;16.00;99.90;;;;;;5007521;28;20346;-63
2023/03/30 08:48:16;;;;;;;;;;;16.20;99.90;;;;;;5011452;28;20008;-61
2023/03/30 08:50:45;;;;;;;;;;;16.20;99.90;;;;;;5011001;28;19952;-61
2023/03/30 08:53:11;;;;;;;;;;;16.10;99.90;;;;;;5010793;28;19914;-63
2023/03/30 08:55:36;;;;;;;;;;;16.10;99.90;;;;;;5010879;28;20382;-62
2023/03/30 08:58:08;;;;;;;;;;;16.10;99.90;;;;;;5009248;28;19917;-62
2023/03/30 09:00:39;;;;;;;;;;;16.10;99.90;;;;;;4999637;28;19968;-63
2023/03/30 09:03:10;;;;;;;;;;;16.10;99.90;;;;;;5002092;28;20481;-63
2023/03/30 09:05:39;;;;;;;;;;;16.20;99.90;;;;;;5004352;28;19913;-62
2023/03/30 09:08:11;;;;;;;;;;;16.50;99.90;;;;;;5010239;28;20455;-63
2023/03/30 09:10:40;;;;;;;;;;;16.50;99.90;;;;;;5004317;28;19913;-61
2023/03/30 09:13:06;;;;;;;;;;;16.30;99.90;;;;;;5010932;28;19968;-63
2023/03/30 09:15:35;;;;;;;;;;;16.10;99.90;;;;;;5007360;28;20016;-62
2023/03/30 09:18:01;;;;;;;;;;;15.90;99.90;;;;;;5009487;28;20375;-62
2023/03/30 09:20:30;;;;;;;;;;;15.80;99.90;;;;;;5010008;28;19953;-63
2023/03/30 09:22:59;;;;;;;;;;;15.60;99.90;;;;;;5007540;28;19917;-64
2023/03/30 09:25:29;;;;;;;;;;;15.40;99.90;;;;;;5006426;28;19914;-62
2023/03/30 09:28:14;;;;;;;;;;;15.30;99.90;;;;;;5008661;28;19920;-63
2023/03/30 09:30:41;;;;;;;;;;;15.30;99.90;;;;;;5007171;28;20028;-64
2023/03/30 09:33:13;;;;;;;;;;;15.10;99.90;;;;;;5003534;28;19920;-61
2023/03/30 09:35:43;;;;;;;;;;;14.80;99.90;;;;;;5007134;28;19920;-64
2023/03/30 09:38:12;;;;;;;;;;;14.40;99.90;;;;;;5008814;28;20614;-61
2023/03/30 09:40:38;;;;;;;;;;;14.40;99.90;;;;;;5009717;28;19909;-61
2023/03/30 09:43:13;;;;;;;;;;;14.10;99.90;;;;;;5008078;28;20375;-61
2023/03/30 09:45:39;;;;;;;;;;;13.40;99.90;;;;;;5008190;28;20638;-61
2023/03/30 09:48:07;;;;;;;;;;;12.40;99.90;;;;;;5009121;28;19924;-63
2023/03/30 09:50:37;;;;;;;;;;;11.60;99.90;;;;;;5008842;28;19913;-63
2023/03/30 09:53:05;;;;;;;;;;;11.20;99.90;;;;;;5009949;28;19909;-63
2023/03/30 09:55:35;;;;;;;;;;;11.10;99.90;;;;;;5006391;28;19920;-66
2023/03/30 09:58:16;;;;;;;;;;;11.10;99.90;;;;;;5008252;28;19918;-65
2023/03/30 10:00:42;;;;;;;;;;;11.00;99.90;;;;;;4999699;28;19920;-65
2023/03/30 10:03:17;;;;;;;;;;;10.90;99.90;;;;;;5008394;28;20450;-65
2023/03/30 10:05:42;;;;;;;;;;;10.80;99.90;;;;;;5005251;28;19924;-66
2023/03/30 10:08:19;;;;;;;;;;;10.70;99.90;;;;;;5009095;28;20379;-64
2023/03/30 10:10:52;;;;;;;;;;;10.80;99.90;;;;;;5007477;28;19913;-66
2023/03/30 10:13:18;;;;;;;;;;;10.90;99.90;;;;;;5003351;28;19913;-64
2023/03/30 10:15:45;;;;;;;;;;;11.10;99.90;;;;;;5002916;28;19960;-65
2023/03/30 10:18:17;;;;;;;;;;;11.10;99.90;;;;;;5009123;28;19952;-65
2023/03/30 10:20:45;;;;;;;;;;;11.30;99.90;;;;;;5007858;28;19967;-65
2023/03/30 10:23:12;;;;;;;;;;;11.40;99.90;;;;;;5005208;28;19928;-65
2023/03/30 10:25:39;;;;;;;;;;;11.40;99.90;;;;;;5006544;28;20004;-65
2023/03/30 10:28:13;;;;;;;;;;;11.50;99.90;;;;;;5008044;28;20357;-65
2023/03/30 10:30:39;;;;;;;;;;;11.40;99.90;;;;;;5009330;28;19913;-65
2023/03/30 10:33:09;;;;;;;;;;;11.40;99.90;;;;;;5008030;28;19914;-65
2023/03/30 10:35:36;;;;;;;;;;;11.40;99.90;;;;;;5008733;28;19945;-65
2023/03/30 10:38:02;;;;;;;;;;;11.30;99.90;;;;;;5009971;28;19913;-66
2023/03/30 10:40:32;;;;;;;;;;;11.40;99.90;;;;;;5003720;28;19913;-65
2023/03/30 10:42:59;;;;;;;;;;;11.40;99.90;;;;;;5011565;28;20283;-66
2023/03/30 10:45:32;;;;;;;;;;;11.60;99.90;;;;;;5008241;28;20338;-65
2023/03/30 10:48:17;;;;;;;;;;;12.10;99.90;;;;;;5008576;28;20287;-65
2023/03/30 10:51:03;;;;;;;;;;;12.50;99.90;;;;;;5002401;28;19961;-65
2023/03/30 10:53:28;;;;;;;;;;;12.80;99.90;;;;;;5008558;28;19952;-64
2023/03/30 10:55:59;;;;;;;;;;;13.00;99.90;;;;;;5008227;28;19948;-63
2023/03/30 10:58:37;;;;;;;;;;;13.10;99.90;;;;;;4998331;28;19917;-65
2023/03/30 11:01:02;;;;;;;;;;;13.30;99.90;;;;;;5005534;28;19921;-63
2023/03/30 11:03:30;;;;;;;;;;;13.30;99.90;;;;;;5007538;28;19913;-64
2023/03/30 11:06:02;;;;;;;;;;;13.50;99.90;;;;;;5003605;28;20364;-64
2023/03/30 11:08:46;;;;;;;;;;;13.70;99.90;;;;;;5007809;28;19932;-65
2023/03/30 11:11:18;;;;;;;;;;;13.80;99.90;;;;;;5008890;28;19921;-64
2023/03/30 11:13:48;;;;;;;;;;;13.70;99.90;;;;;;5007336;28;19960;-64
2023/03/30 11:16:23;;;;;;;;;;;13.90;99.90;;;;;;5010405;28;19921;-64
2023/03/30 11:18:48;;;;;;;;;;;14.20;99.90;;;;;;5006534;28;19951;-63
2023/03/30 11:21:17;;;;;;;;;;;14.30;99.90;;;;;;5006783;28;20388;-63
2023/03/30 11:23:55;;;;;;;;;;;14.20;99.90;;;;;;5010452;28;20028;-64
2023/03/30 11:26:24;;;;;;;;;;;14.00;99.90;;;;;;5002673;28;19925;-63
2023/03/30 11:28:52;;;;;;;;;;;13.90;99.90;;;;;;5007460;28;19980;-63
2023/03/30 11:31:25;;;;;;;;;;;13.90;99.90;;;;;;5005528;28;20007;-64
2023/03/30 11:34:11;;;;;;;;;;;13.90;99.90;;;;;;5011116;28;19917;-65
2023/03/30 11:37:02;;;;;;;;;;;13.90;99.90;;;;;;5007028;28;19925;-63
2023/03/30 11:39:31;;;;;;;;;;;13.90;99.90;;;;;;5010027;28;20036;-64
2023/03/30 11:42:00;;;;;;;;;;;14.30;99.90;;;;;;5010083;28;19913;-64
2023/03/30 11:44:26;;;;;;;;;;;14.90;99.90;;;;;;5006779;28;19920;-63
2023/03/30 11:47:00;;;;;;;;;;;15.30;99.90;;;;;;5010521;28;20310;-64
2023/03/30 11:49:38;;;;;;;;;;;15.50;99.90;;;;;;5006080;28;19913;-65
2023/03/30 11:52:22;;;;;;;;;;;15.80;99.90;;;;;;5004836;28;19914;-64
2023/03/30 11:54:52;;;;;;;;;;;16.40;99.90;;;;;;5002001;28;19920;-66
2023/03/30 11:57:36;;;;;;;;;;;16.20;99.90;;;;;;4998911;28;19921;-64
2023/03/30 12:00:24;;;;;;;;;;;16.20;99.90;;;;;;4998188;28;19996;-65
2023/03/30 12:03:06;;;;;;;;;;;16.10;99.90;;;;;;5003144;28;19971;-64
2023/03/30 12:05:43;;;;;;;;;;;16.40;99.90;;;;;;5005211;28;19917;-65
2023/03/30 12:08:09;;;;;;;;;;;16.50;99.90;;;;;;5004803;28;19918;-65
2023/03/30 12:10:39;;;;;;;;;;;16.60;99.90;;;;;;5001773;28;19917;-63
2023/03/30 12:13:05;;;;;;;;;;;16.80;99.90;;;;;;5008849;28;19924;-65
2023/03/30 12:15:40;;;;;;;;;;;17.00;99.90;;;;;;5002875;28;20331;-64
2023/03/30 12:18:08;;;;;;;;;;;17.40;99.90;;;;;;5009759;28;20034;-64
2023/03/30 12:20:46;;;;;;;;;;;17.50;99.90;;;;;;5008824;28;19925;-64
2023/03/30 12:23:26;;;;;;;;;;;16.90;99.90;;;;;;5008540;28;19921;-63
2023/03/30 12:26:10;;;;;;;;;;;16.60;99.90;;;;;;5010289;28;19921;-63
2023/03/30 12:28:42;;;;;;;;;;;16.30;99.90;;;;;;5004839;28;20021;-64
2023/03/30 12:31:07;;;;;;;;;;;16.10;99.90;;;;;;5009223;28;20398;-63
2023/03/30 12:33:33;;;;;;;;;;;16.10;99.90;;;;;;5007356;28;19914;-64
2023/03/30 12:36:02;;;;;;;;;;;15.70;99.90;;;;;;5004260;28;19980;-64
2023/03/30 12:38:37;;;;;;;;;;;15.60;99.90;;;;;;5010513;28;20556;-64
2023/03/30 12:41:12;;;;;;;;;;;15.50;99.90;;;;;;5006234;28;19913;-63
2023/03/30 12:43:46;;;;;;;;;;;15.70;99.90;;;;;;5011383;28;19910;-60
2023/03/30 12:46:19;;;;;;;;;;;15.80;99.90;;;;;;5007192;28;19971;-63
2023/03/30 12:49:10;;;;;;;;;;;16.00;99.90;;;;;;5010124;28;20012;-63
2023/03/30 12:51:36;;;;;;;;;;;16.20;99.90;;;;;;5016298;28;20311;-63
2023/03/30 12:54:31;;;;;;;;;;;16.80;99.90;;;;;;5010593;28;19910;-63
2023/03/30 12:57:16;;;;;;;;;;;17.30;99.90;;;;;;5009109;28;20384;-62
2023/03/30 12:59:53;;;;;;;;;;;17.70;99.90;;;;;;5007860;28;19961;-64
2023/03/30 13:02:19;;;;;;;;;;;17.80;99.90;;;;;;5008228;28;19913;-62
2023/03/30 13:04:47;;;;;;;;;;;17.40;99.90;;;;;;5007454;28;19948;-63
2023/03/30 13:07:23;;;;;;;;;;;17.00;99.90;;;;;;5004186;28;19979;-63
2023/03/30 13:09:52;;;;;;;;;;;16.50;99.90;;;;;;5004844;28;20045;-63
2023/03/30 13:12:38;;;;;;;;;;;16.30;99.90;;;;;;5006934;28;19913;-64
2023/03/30 13:15:04;;;;;;;;;;;15.90;99.90;;;;;;5009279;28;19913;-64
2023/03/30 13:17:47;;;;;;;;;;;15.60;99.90;;;;;;5009751;28;19917;-63
2023/03/30 13:20:17;;;;;;;;;;;15.20;99.90;;;;;;5006165;28;19921;-64
2023/03/30 13:23:09;;;;;;;;;;;14.30;99.90;;;;;;5006513;28;19960;-65
2023/03/30 13:25:44;;;;;;;;;;;13.90;99.90;;;;;;5013365;28;20372;-66
2023/03/30 13:28:28;;;;;;;;;;;13.20;99.90;;;;;;5002360;28;20021;-65
2023/03/30 13:30:58;;;;;;;;;;;13.20;99.90;;;;;;5000881;28;19911;-63
2023/03/30 13:33:23;;;;;;;;;;;13.00;99.90;;;;;;5005317;28;19925;-63
2023/03/30 13:36:00;;;;;;;;;;;12.80;99.90;;;;;;5004405;28;19910;-64
2023/03/30 13:38:29;;;;;;;;;;;12.60;99.90;;;;;;5004477;28;19971;-64
2023/03/30 13:40:57;;;;;;;;;;;12.40;99.90;;;;;;5007182;28;20790;-66
2023/03/30 13:43:31;;;;;;;;;;;12.10;99.90;;;;;;5004360;28;19917;-64
2023/03/30 13:46:12;;;;;;;;;;;11.80;99.90;;;;;;5006147;28;20284;-65
2023/03/30 13:48:40;;;;;;;;;;;11.50;99.90;;;;;;5003908;28;19976;-62
2023/03/30 13:51:11;;;;;;;;;;;11.40;99.90;;;;;;5007107;28;19913;-65
2023/03/30 13:53:40;;;;;;;;;;;11.50;99.90;;;;;;5004843;28;19921;-63
2023/03/30 13:56:07;;;;;;;;;;;11.80;99.90;;;;;;5007634;28;20304;-65
2023/03/30 13:58:33;;;;;;;;;;;12.30;99.90;;;;;;5005252;28;20291;-64
2023/03/30 14:01:00;;;;;;;;;;;12.70;99.90;;;;;;5002607;28;19921;-64
2023/03/30 14:03:27;;;;;;;;;;;13.20;99.90;;;;;;5002352;28;19905;-64
2023/03/30 14:05:53;;;;;;;;;;;13.40;99.90;;;;;;5006856;28;20267;-63
2023/03/30 14:08:19;;;;;;;;;;;13.70;99.90;;;;;;5005791;28;19949;-64
2023/03/30 14:10:49;;;;;;;;;;;14.00;99.90;;;;;;5005236;28;19949;-63
2023/03/30 14:13:15;;;;;;;;;;;14.20;99.90;;;;;;5000949;28;20487;-65
2023/03/30 14:15:41;;;;;;;;;;;14.30;99.90;;;;;;5001480;28;20013;-64
2023/03/30 14:18:09;;;;;;;;;;;14.50;99.90;;;;;;4999595;28;19944;-65
2023/03/30 14:20:36;;;;;;;;;;;14.70;99.90;;;;;;5001262;28;20012;-64
2023/03/30 14:23:02;;;;;;;;;;;14.90;99.90;;;;;;5001203;28;19922;-64
2023/03/30 14:25:45;;;;;;;;;;;15.20;99.90;;;;;;4999346;28;19995;-63
2023/03/30 14:28:15;;;;;;;;;;;15.60;99.90;;;;;;5000307;28;19921;-64